createdAt,value
2018-03-29T00:01:56.467Z,13.82
2018-03-29T00:04:23.331Z,13.43
2018-03-29T00:06:50.168Z,12.00
2018-03-29T00:09:16.983Z,10.68
2018-03-29T00:11:43.840Z,12.25
2018-03-29T00:14:10.653Z,12.50
2018-03-29T00:16:37.514Z,12.57
2018-03-29T00:19:04.387Z,9.07
2018-03-29T00:21:31.288Z,10.50
2018-03-29T00:23:58.088Z,10.80
2018-03-29T00:26:24.941Z,10.07
2018-03-29T00:28:51.790Z,10.80
2018-03-29T00:31:18.661Z,11.32
2018-03-29T00:33:45.576Z,9.52
2018-03-29T00:36:12.404Z,10.18
2018-03-29T00:38:39.320Z,10.25
2018-03-29T00:41:06.148Z,9.00
2018-03-29T00:43:33.032Z,9.15
2018-03-29T00:45:59.894Z,9.35
2018-03-29T00:48:26.764Z,10.00
2018-03-29T00:50:53.558Z,9.50
2018-03-29T00:53:26.400Z,8.73
2018-03-29T00:55:53.197Z,8.68
2018-03-29T00:58:20.060Z,8.60
2018-03-29T01:00:46.954Z,7.90
2018-03-29T01:03:13.826Z,8.60
2018-03-29T01:05:40.671Z,7.00
2018-03-29T01:08:07.486Z,6.57
2018-03-29T01:10:34.342Z,7.12
2018-03-29T01:13:01.153Z,6.95
2018-03-29T01:15:27.979Z,5.65
2018-03-29T01:17:54.771Z,6.65
2018-03-29T01:20:21.605Z,6.45
2018-03-29T01:22:48.465Z,6.00
2018-03-29T01:25:15.318Z,5.68
2018-03-29T01:27:42.123Z,5.85
2018-03-29T01:30:08.952Z,6.18
2018-03-29T01:32:38.689Z,5.80
2018-03-29T01:35:05.521Z,5.22
2018-03-29T01:37:32.364Z,5.30
2018-03-29T01:39:59.189Z,4.87
2018-03-29T01:42:26.043Z,4.90
2018-03-29T01:44:52.898Z,5.65
2018-03-29T01:47:19.680Z,4.30
2018-03-29T01:49:46.497Z,4.70
2018-03-29T01:52:13.370Z,4.12
2018-03-29T01:54:40.234Z,4.78
2018-03-29T01:57:07.084Z,4.72
2018-03-29T01:59:33.891Z,5.15
2018-03-29T02:02:00.794Z,4.25
2018-03-29T02:04:27.596Z,5.10
2018-03-29T02:06:54.414Z,4.40
2018-03-29T02:09:21.267Z,4.60
2018-03-29T02:11:48.108Z,4.40
2018-03-29T02:14:15.013Z,4.65
2018-03-29T02:16:41.830Z,3.90
2018-03-29T02:19:08.695Z,4.70
2018-03-29T02:21:35.516Z,4.65
2018-03-29T02:24:02.337Z,4.50
2018-03-29T02:26:29.186Z,4.37
2018-03-29T02:28:56.006Z,4.57
2018-03-29T02:31:22.916Z,5.40
2018-03-29T02:33:49.804Z,4.20
2018-03-29T02:36:16.703Z,4.30
2018-03-29T02:38:43.525Z,4.18
2018-03-29T02:41:10.321Z,4.60
2018-03-29T02:43:37.170Z,3.25
2018-03-29T02:46:03.996Z,3.97
2018-03-29T02:48:30.777Z,4.12
2018-03-29T02:50:57.639Z,3.65
2018-03-29T02:53:24.494Z,3.50
2018-03-29T02:55:51.306Z,3.33
2018-03-29T02:58:18.182Z,4.20
2018-03-29T03:00:45.044Z,3.70
2018-03-29T03:03:11.923Z,2.90
2018-03-29T03:05:38.758Z,3.22
2018-03-29T03:08:05.581Z,3.10
2018-03-29T03:10:32.406Z,3.17
2018-03-29T03:12:59.212Z,2.78
2018-03-29T03:15:26.075Z,3.75
2018-03-29T03:17:52.895Z,3.17
2018-03-29T03:20:19.704Z,3.78
2018-03-29T03:22:46.566Z,3.70
2018-03-29T03:25:13.395Z,3.42
2018-03-29T03:27:40.352Z,3.58
2018-03-29T03:30:07.204Z,4.05
2018-03-29T03:32:34.048Z,3.85
2018-03-29T03:35:00.961Z,3.92
2018-03-29T03:37:27.794Z,3.70
2018-03-29T03:39:54.637Z,4.50
2018-03-29T03:42:21.465Z,4.45
2018-03-29T03:44:48.320Z,4.35
2018-03-29T03:47:15.114Z,4.03
2018-03-29T03:49:41.938Z,4.90
2018-03-29T03:52:08.789Z,4.90
2018-03-29T03:54:35.610Z,4.28
2018-03-29T03:57:02.436Z,4.40
2018-03-29T03:59:29.238Z,5.90
2018-03-29T04:01:56.057Z,5.05
2018-03-29T04:04:22.855Z,4.45
2018-03-29T04:06:49.689Z,5.47
2018-03-29T04:09:16.496Z,5.05
2018-03-29T04:11:43.382Z,5.28
2018-03-29T04:14:10.202Z,4.53
2018-03-29T04:16:37.027Z,3.85
2018-03-29T04:19:03.842Z,4.20
2018-03-29T04:21:30.628Z,4.40
2018-03-29T04:23:57.430Z,3.83
2018-03-29T04:26:24.335Z,4.30
2018-03-29T04:28:51.179Z,3.90
2018-03-29T04:31:17.997Z,3.45
2018-03-29T04:33:44.803Z,4.00
2018-03-29T04:36:11.714Z,3.80
2018-03-29T04:38:38.564Z,4.28
2018-03-29T04:41:05.392Z,3.95
2018-03-29T04:43:32.234Z,3.55
2018-03-29T04:45:59.042Z,3.60
2018-03-29T04:48:25.960Z,3.70
2018-03-29T04:50:52.866Z,3.35
2018-03-29T04:53:19.756Z,3.30
2018-03-29T04:55:46.700Z,3.55
2018-03-29T04:58:13.571Z,3.67
2018-03-29T05:00:40.492Z,4.18
2018-03-29T05:03:07.331Z,4.15
2018-03-29T05:05:34.170Z,4.47
2018-03-29T05:08:01.036Z,4.90
2018-03-29T05:10:27.934Z,4.32
2018-03-29T05:12:54.741Z,4.37
2018-03-29T05:15:21.605Z,4.85
2018-03-29T05:17:48.389Z,4.82
2018-03-29T05:20:15.265Z,4.28
2018-03-29T05:22:42.140Z,4.37
2018-03-29T05:25:08.975Z,5.35
2018-03-29T05:27:35.847Z,4.95
2018-03-29T05:30:02.750Z,5.60
2018-03-29T05:32:29.574Z,6.97
2018-03-29T05:34:56.369Z,5.28
2018-03-29T05:37:23.209Z,5.32
2018-03-29T05:39:50.171Z,6.20
2018-03-29T05:42:16.997Z,6.28
2018-03-29T05:44:43.859Z,7.25
2018-03-29T05:47:10.724Z,7.03
2018-03-29T05:49:37.505Z,6.10
2018-03-29T05:52:04.327Z,7.53
2018-03-29T05:54:31.123Z,6.82
2018-03-29T05:56:57.960Z,6.82
2018-03-29T05:59:24.807Z,7.18
2018-03-29T06:01:51.666Z,8.02
2018-03-29T06:04:18.553Z,6.80
2018-03-29T06:06:45.379Z,6.68
2018-03-29T06:09:12.260Z,7.72
2018-03-29T06:11:39.143Z,8.15
2018-03-29T06:14:07.793Z,6.70
2018-03-29T06:16:40.339Z,6.53
2018-03-29T06:19:09.066Z,6.97
2018-03-29T06:21:35.977Z,7.12
2018-03-29T06:24:02.865Z,6.43
2018-03-29T06:26:29.721Z,6.10
2018-03-29T06:28:56.586Z,6.68
2018-03-29T06:31:23.387Z,6.30
2018-03-29T06:33:50.193Z,6.00
2018-03-29T06:36:16.999Z,6.30
2018-03-29T06:38:43.860Z,6.62
2018-03-29T06:41:10.690Z,6.70
2018-03-29T06:43:37.573Z,6.95
2018-03-29T06:46:04.414Z,6.65
2018-03-29T06:48:31.251Z,6.78
2018-03-29T06:50:58.085Z,6.60
2018-03-29T06:53:24.990Z,7.10
2018-03-29T06:55:51.834Z,7.75
2018-03-29T06:58:18.689Z,6.57
2018-03-29T07:00:45.551Z,6.35
2018-03-29T07:03:12.366Z,6.05
2018-03-29T07:05:39.204Z,7.30
2018-03-29T07:08:06.032Z,7.60
2018-03-29T07:10:32.870Z,7.70
2018-03-29T07:12:59.674Z,8.55
2018-03-29T07:15:26.552Z,9.15
2018-03-29T07:17:53.390Z,9.07
2018-03-29T07:20:20.214Z,9.70
2018-03-29T07:22:47.031Z,9.57
2018-03-29T07:25:13.996Z,9.70
2018-03-29T07:27:40.875Z,9.68
2018-03-29T07:30:07.716Z,10.90
2018-03-29T07:32:34.563Z,11.40
2018-03-29T07:35:01.322Z,11.93
2018-03-29T07:37:28.116Z,11.00
2018-03-29T07:39:54.882Z,10.75
2018-03-29T07:42:21.690Z,11.77
2018-03-29T07:44:48.454Z,12.02
2018-03-29T07:47:15.214Z,10.70
2018-03-29T07:49:42.003Z,10.93
2018-03-29T07:52:08.789Z,11.85
2018-03-29T07:54:35.573Z,11.43
2018-03-29T07:57:02.339Z,11.88
2018-03-29T07:59:29.157Z,11.88
2018-03-29T08:01:55.933Z,12.68
2018-03-29T08:04:22.737Z,13.70
2018-03-29T08:06:49.500Z,13.02
2018-03-29T08:09:16.269Z,13.05
2018-03-29T08:11:43.081Z,12.65
2018-03-29T08:14:09.851Z,12.93
2018-03-29T08:16:36.618Z,12.13
2018-03-29T08:19:03.398Z,13.80
2018-03-29T08:21:30.199Z,13.55
2018-03-29T08:23:56.972Z,14.43
2018-03-29T08:26:23.800Z,15.32
2018-03-29T08:28:50.637Z,17.85
2018-03-29T08:31:17.409Z,17.00
2018-03-29T08:33:44.170Z,16.33
2018-03-29T08:36:10.941Z,18.05
2018-03-29T08:38:37.845Z,15.80
2018-03-29T08:46:35.567Z,14.98
2018-03-29T08:49:02.328Z,15.27
2018-03-29T08:51:29.131Z,16.15
2018-03-29T08:53:55.901Z,14.60
2018-03-29T08:56:22.658Z,13.00
2018-03-29T08:58:49.453Z,12.80
2018-03-29T09:01:16.232Z,13.00
2018-03-29T09:03:42.993Z,14.57
2018-03-29T09:06:09.768Z,12.35
2018-03-29T09:08:36.533Z,14.45
2018-03-29T09:11:03.296Z,13.40
2018-03-29T09:13:30.065Z,14.10
2018-03-29T09:15:56.815Z,13.97
2018-03-29T09:18:23.620Z,14.00
2018-03-29T09:20:50.436Z,14.75
2018-03-29T09:23:17.229Z,16.40
2018-03-29T09:25:43.986Z,14.52
2018-03-29T09:28:10.751Z,17.45
2018-03-29T09:30:37.529Z,16.37
2018-03-29T09:33:04.293Z,16.17
2018-03-29T09:35:31.071Z,16.62
2018-03-29T09:37:57.880Z,16.50
2018-03-29T09:40:24.646Z,15.82
2018-03-29T09:42:51.413Z,15.60
2018-03-29T09:45:18.178Z,15.23
2018-03-29T09:47:44.956Z,16.00
2018-03-29T09:50:11.717Z,16.08
2018-03-29T09:52:38.643Z,15.00
2018-03-29T09:55:05.524Z,17.92
2018-03-29T09:57:32.332Z,18.27
2018-03-29T09:59:59.175Z,16.80
2018-03-29T10:02:26.116Z,16.10
2018-03-29T10:04:58.693Z,16.80
2018-03-29T10:07:31.314Z,17.48
2018-03-29T10:09:58.165Z,13.90
2018-03-29T10:12:25.038Z,17.85
2018-03-29T10:14:51.886Z,18.50
2018-03-29T10:17:29.001Z,17.52
2018-03-29T10:19:55.853Z,18.00
2018-03-29T10:22:22.772Z,18.02
2018-03-29T10:24:49.642Z,18.45
2018-03-29T10:27:16.575Z,19.77
2018-03-29T10:29:43.460Z,19.23
2018-03-29T10:32:10.365Z,20.10
2018-03-29T10:34:37.192Z,19.08
2018-03-29T10:37:04.102Z,18.15
2018-03-29T10:39:30.927Z,19.37
2018-03-29T10:41:57.861Z,20.15
2018-03-29T10:44:24.791Z,20.15
2018-03-29T10:46:51.698Z,21.90
2018-03-29T10:49:18.603Z,20.75
2018-03-29T10:51:45.581Z,20.73
2018-03-29T10:54:12.423Z,19.87
2018-03-29T10:56:39.245Z,21.05
2018-03-29T10:59:06.201Z,20.37
2018-03-29T11:01:33.047Z,20.95
2018-03-29T11:03:59.986Z,20.65
2018-03-29T11:06:26.915Z,23.48
2018-03-29T11:08:53.817Z,21.52
2018-03-29T11:11:20.708Z,22.45
2018-03-29T11:13:47.639Z,21.95
2018-03-29T11:16:14.560Z,21.87
2018-03-29T11:18:41.404Z,22.50
2018-03-29T11:21:08.296Z,23.60
2018-03-29T11:23:35.095Z,22.30
2018-03-29T11:26:02.057Z,23.55
2018-03-29T11:28:28.963Z,23.80
2018-03-29T11:30:55.925Z,23.55
2018-03-29T11:33:22.878Z,22.62
2018-03-29T11:35:49.677Z,21.67
2018-03-29T11:38:16.535Z,21.75
2018-03-29T11:40:43.474Z,23.38
2018-03-29T11:43:10.323Z,24.55
2018-03-29T11:45:37.257Z,22.80
2018-03-29T11:48:04.313Z,21.20
2018-03-29T11:50:31.190Z,20.88
2018-03-29T11:52:58.065Z,21.35
2018-03-29T11:55:24.953Z,21.92
2018-03-29T11:57:51.818Z,22.02
2018-03-29T12:00:18.637Z,20.80
2018-03-29T12:02:45.483Z,21.42
2018-03-29T12:05:12.308Z,21.70
2018-03-29T12:07:39.100Z,20.98
2018-03-29T12:10:06.029Z,21.70
2018-03-29T12:12:32.856Z,19.85
2018-03-29T12:14:59.739Z,20.92
2018-03-29T12:17:26.615Z,19.70
2018-03-29T12:19:53.437Z,21.70
2018-03-29T12:22:20.311Z,20.83
2018-03-29T12:24:47.118Z,20.30
2018-03-29T12:27:13.921Z,20.52
2018-03-29T12:29:40.683Z,22.60
2018-03-29T12:32:07.484Z,21.75
2018-03-29T12:34:34.255Z,20.85
2018-03-29T12:37:01.064Z,19.20
2018-03-29T12:39:27.831Z,22.73
2018-03-29T12:41:54.590Z,20.48
2018-03-29T12:44:21.372Z,21.65
2018-03-29T12:46:48.197Z,20.20
2018-03-29T12:49:14.989Z,20.40
2018-03-29T12:51:41.762Z,19.70
2018-03-29T12:54:08.550Z,20.35
2018-03-29T12:56:41.332Z,20.00
2018-03-29T12:59:08.102Z,19.52
2018-03-29T13:01:34.914Z,19.27
2018-03-29T13:04:01.706Z,18.62
2018-03-29T13:06:28.477Z,20.58
2018-03-29T13:08:55.250Z,19.52
2018-03-29T13:11:22.468Z,18.12
2018-03-29T13:13:49.259Z,17.23
2018-03-29T13:16:16.062Z,21.00
2018-03-29T13:18:42.865Z,20.37
2018-03-29T13:21:09.666Z,19.98
2018-03-29T13:23:36.516Z,19.33
2018-03-29T13:26:03.306Z,14.05
2018-03-29T13:28:30.153Z,13.98
2018-03-29T13:30:56.962Z,15.18
2018-03-29T13:33:23.806Z,14.27
2018-03-29T13:35:50.872Z,13.88
2018-03-29T13:38:18.217Z,12.70
2018-03-29T13:40:45.240Z,12.85
2018-03-29T13:43:12.019Z,14.65
2018-03-29T13:45:38.817Z,13.80
2018-03-29T13:48:05.604Z,13.48
2018-03-29T13:50:32.412Z,14.93
2018-03-29T13:52:59.189Z,13.70
2018-03-29T13:55:26.005Z,13.70
2018-03-29T13:57:52.808Z,12.15
2018-03-29T14:00:19.571Z,11.52
2018-03-29T14:02:46.349Z,11.75
2018-03-29T14:05:13.159Z,11.10
2018-03-29T14:07:39.974Z,12.23
2018-03-29T14:10:06.749Z,11.10
2018-03-29T14:12:33.511Z,12.18
2018-03-29T14:15:00.296Z,12.32
2018-03-29T14:17:27.094Z,13.32
2018-03-29T14:19:53.890Z,13.85
2018-03-29T14:22:20.662Z,14.80
2018-03-29T14:24:47.424Z,16.87
2018-03-29T14:27:14.188Z,15.73
2018-03-29T14:29:40.983Z,15.77
2018-03-29T14:32:07.755Z,15.05
2018-03-29T14:34:34.537Z,14.95
2018-03-29T14:37:01.327Z,15.23
2018-03-29T14:39:28.094Z,13.18
2018-03-29T14:41:54.913Z,13.57
2018-03-29T14:44:21.695Z,13.80
2018-03-29T14:46:48.555Z,14.80
2018-03-29T14:49:15.386Z,13.93
2018-03-29T14:51:42.147Z,13.82
2018-03-29T14:54:09.306Z,12.90
2018-03-29T14:56:36.206Z,12.75
2018-03-29T14:59:03.072Z,14.40
2018-03-29T15:01:29.864Z,13.70
2018-03-29T15:03:56.656Z,14.15
2018-03-29T15:06:23.462Z,14.50
2018-03-29T15:08:50.259Z,13.70
2018-03-29T15:11:17.082Z,14.05
2018-03-29T15:13:43.959Z,13.55
2018-03-29T15:16:10.737Z,13.35
2018-03-29T15:18:37.529Z,10.90
2018-03-29T15:21:04.328Z,11.68
2018-03-29T15:23:31.146Z,12.55
2018-03-29T15:25:57.913Z,12.00
2018-03-29T15:28:24.694Z,12.10
2018-03-29T15:30:51.474Z,13.55
2018-03-29T15:33:18.270Z,12.18
2018-03-29T15:35:45.052Z,10.27
2018-03-29T15:38:11.850Z,9.90
2018-03-29T15:40:38.714Z,10.05
2018-03-29T15:43:05.514Z,9.55
2018-03-29T15:45:32.308Z,9.70
2018-03-29T15:47:59.074Z,10.32
2018-03-29T15:50:25.838Z,9.10
2018-03-29T15:52:52.597Z,10.70
2018-03-29T15:55:19.390Z,10.15
2018-03-29T15:57:46.164Z,10.38
2018-03-29T16:00:12.941Z,11.80
2018-03-29T16:02:39.774Z,10.20
2018-03-29T16:05:06.529Z,10.25
2018-03-29T16:07:33.295Z,10.40
2018-03-29T16:10:00.073Z,10.63
2018-03-29T16:12:26.891Z,11.63
2018-03-29T16:14:53.659Z,12.35
2018-03-29T16:17:20.434Z,14.90
2018-03-29T16:19:47.221Z,11.18
2018-03-29T16:22:14.005Z,10.50
2018-03-29T16:24:40.805Z,12.15
2018-03-29T16:27:07.581Z,11.93
2018-03-29T16:29:34.401Z,12.05
2018-03-29T16:32:01.327Z,12.50
2018-03-29T16:34:28.224Z,12.07
2018-03-29T16:36:54.990Z,11.73
2018-03-29T16:39:21.798Z,11.65
2018-03-29T16:41:48.607Z,11.65
2018-03-29T16:44:15.380Z,10.93
2018-03-29T16:46:42.154Z,11.15
2018-03-29T16:49:08.923Z,12.55
2018-03-29T16:51:35.697Z,11.52
2018-03-29T16:54:02.488Z,11.50
2018-03-29T16:56:29.302Z,11.80
2018-03-29T16:58:56.077Z,12.45
2018-03-29T17:01:22.900Z,12.30
2018-03-29T17:03:49.706Z,13.57
2018-03-29T17:06:16.472Z,13.10
2018-03-29T17:08:43.318Z,13.70
2018-03-29T17:11:10.087Z,13.90
2018-03-29T17:13:36.890Z,13.10
2018-03-29T17:16:03.662Z,12.60
2018-03-29T17:18:30.473Z,13.45
2018-03-29T17:20:57.243Z,12.82
2018-03-29T17:23:23.999Z,12.27
2018-03-29T17:25:50.930Z,13.85
2018-03-29T17:28:17.702Z,12.02
2018-03-29T17:30:44.506Z,11.27
2018-03-29T17:33:11.274Z,10.98
2018-03-29T17:35:38.042Z,11.50
2018-03-29T17:38:04.830Z,11.30
2018-03-29T17:40:31.624Z,10.43
2018-03-29T17:42:58.381Z,10.68
2018-03-29T17:45:25.141Z,9.80
2018-03-29T17:47:51.931Z,9.60
2018-03-29T17:50:18.685Z,11.00
2018-03-29T17:52:45.493Z,10.90
2018-03-29T17:55:12.257Z,9.55
2018-03-29T17:57:39.069Z,10.60
2018-03-29T18:00:05.855Z,10.90
2018-03-29T18:02:32.640Z,11.30
2018-03-29T18:04:59.408Z,11.82
2018-03-29T18:07:26.177Z,12.37
2018-03-29T18:09:53.006Z,11.45
2018-03-29T18:12:19.769Z,11.93
2018-03-29T18:14:46.549Z,12.10
2018-03-29T18:17:13.312Z,13.95
2018-03-29T18:19:40.157Z,13.40
2018-03-29T18:22:06.923Z,12.57
2018-03-29T18:24:33.726Z,12.90
2018-03-29T18:27:00.567Z,14.02
2018-03-29T18:29:27.350Z,13.02
2018-03-29T18:31:54.123Z,11.80
2018-03-29T18:34:20.892Z,13.82
2018-03-29T18:36:47.655Z,12.80
2018-03-29T18:39:14.417Z,13.65
2018-03-29T18:41:41.221Z,15.18
2018-03-29T18:44:08.009Z,12.50
2018-03-29T18:46:34.774Z,14.32
2018-03-29T18:49:01.538Z,15.10
2018-03-29T18:51:28.363Z,13.75
2018-03-29T18:53:55.183Z,14.15
2018-03-29T18:56:22.016Z,14.45
2018-03-29T18:58:48.759Z,16.20
2018-03-29T19:01:15.557Z,15.65
2018-03-29T19:03:42.327Z,15.10
2018-03-29T19:06:09.099Z,16.62
2018-03-29T19:08:35.864Z,17.20
2018-03-29T19:11:02.724Z,16.40
2018-03-29T19:13:29.550Z,16.65
2018-03-29T19:15:56.321Z,17.12
2018-03-29T19:18:23.085Z,14.50
2018-03-29T19:20:49.869Z,16.42
2018-03-29T19:23:16.631Z,15.95
2018-03-29T19:25:43.431Z,16.85
2018-03-29T19:28:10.230Z,15.80
2018-03-29T19:30:37.042Z,17.67
2018-03-29T19:33:03.804Z,17.02
2018-03-29T19:35:30.620Z,18.00
2018-03-29T19:37:57.382Z,17.02
2018-03-29T19:40:24.195Z,16.37
2018-03-29T19:42:50.990Z,16.37
2018-03-29T19:45:17.786Z,15.90
2018-03-29T19:47:44.556Z,16.83
2018-03-29T19:50:11.365Z,18.62
2018-03-29T19:52:38.164Z,17.45
2018-03-29T19:55:05.008Z,16.62
2018-03-29T19:57:31.817Z,18.27
2018-03-29T19:59:58.671Z,17.27
2018-03-29T20:02:25.466Z,18.55
2018-03-29T20:04:52.279Z,17.65
2018-03-29T20:07:19.055Z,20.48
2018-03-29T20:09:45.828Z,17.83
2018-03-29T20:12:12.706Z,18.95
2018-03-29T20:14:39.582Z,19.48
2018-03-29T20:17:06.400Z,19.23
2018-03-29T20:19:33.173Z,19.98
2018-03-29T20:22:00.046Z,20.08
2018-03-29T20:24:26.848Z,20.35
2018-03-29T20:26:53.620Z,21.08
2018-03-29T20:29:20.458Z,19.92
2018-03-29T20:31:47.244Z,18.08
2018-03-29T20:34:14.088Z,18.90
2018-03-29T20:36:40.893Z,22.05
2018-03-29T20:39:07.718Z,21.10
2018-03-29T20:41:34.481Z,19.45
2018-03-29T20:44:01.267Z,23.20
2018-03-29T20:46:28.073Z,23.12
2018-03-29T20:48:54.912Z,23.52
2018-03-29T20:51:21.734Z,25.92
2018-03-29T20:53:48.565Z,21.85
2018-03-29T20:56:15.410Z,25.02
2018-03-29T20:58:42.188Z,25.25
2018-03-29T21:01:09.037Z,23.55
2018-03-29T21:03:35.897Z,25.25
2018-03-29T21:06:02.694Z,23.75
2018-03-29T21:08:29.582Z,24.75
2018-03-29T21:10:56.410Z,25.05
2018-03-29T21:13:23.168Z,24.37
2018-03-29T21:15:49.999Z,27.08
2018-03-29T21:18:16.876Z,28.00
2018-03-29T21:20:43.643Z,24.08
2018-03-29T21:23:10.486Z,25.35
2018-03-29T21:25:37.298Z,24.02
2018-03-29T21:28:04.071Z,23.90
2018-03-29T21:30:30.867Z,25.92
2018-03-29T21:32:57.705Z,24.30
2018-03-29T21:35:24.567Z,26.00
2018-03-29T21:37:51.366Z,24.52
2018-03-29T21:40:18.202Z,26.17
2018-03-29T21:42:45.034Z,26.10
2018-03-29T21:45:11.856Z,24.77
2018-03-29T21:47:38.685Z,26.25
2018-03-29T21:50:05.455Z,27.10
2018-03-29T21:52:32.228Z,27.02
2018-03-29T21:54:59.078Z,26.20
2018-03-29T21:57:25.851Z,24.10
2018-03-29T21:59:52.612Z,25.70
2018-03-29T22:02:19.429Z,26.05
2018-03-29T22:04:46.231Z,24.30
2018-03-29T22:07:13.038Z,25.98
2018-03-29T22:09:39.817Z,24.30
2018-03-29T22:12:06.624Z,24.52
2018-03-29T22:14:33.391Z,27.58
2018-03-29T22:17:00.160Z,24.98
2018-03-29T22:19:26.935Z,26.10
2018-03-29T22:21:53.715Z,26.08
2018-03-29T22:24:20.510Z,27.48
2018-03-29T22:26:47.274Z,27.42
2018-03-29T22:29:14.071Z,30.55
2018-03-29T22:31:40.828Z,27.65
2018-03-29T22:34:07.625Z,27.65
2018-03-29T22:36:34.395Z,29.48
2018-03-29T22:39:01.170Z,31.08
2018-03-29T22:41:27.986Z,26.58
2018-03-29T22:43:54.752Z,26.67
2018-03-29T22:46:21.566Z,27.37
2018-03-29T22:48:48.332Z,28.73
2018-03-29T22:51:15.108Z,25.80
2018-03-29T22:53:41.880Z,30.88
2018-03-29T22:56:08.691Z,32.38
2018-03-29T22:58:35.457Z,30.17
2018-03-29T23:01:03.074Z,30.33
2018-03-29T23:03:29.849Z,27.05
2018-03-29T23:05:56.611Z,27.58
2018-03-29T23:08:23.377Z,29.23
2018-03-29T23:10:50.158Z,31.15
2018-03-29T23:13:16.941Z,29.75
2018-03-29T23:15:43.717Z,26.10
2018-03-29T23:18:10.508Z,30.50
2018-03-29T23:20:37.266Z,29.45
2018-03-29T23:23:04.053Z,29.30
2018-03-29T23:25:30.810Z,32.42
2018-03-29T23:27:57.574Z,26.35
2018-03-29T23:30:24.369Z,30.15
2018-03-29T23:32:51.144Z,29.50
2018-03-29T23:35:17.901Z,26.05
2018-03-29T23:37:44.668Z,27.73
2018-03-29T23:40:11.431Z,28.42
2018-03-29T23:42:38.211Z,26.98
2018-03-29T23:45:04.982Z,26.08
2018-03-29T23:47:31.740Z,28.77
2018-03-29T23:49:58.509Z,27.73
2018-03-29T23:52:25.280Z,24.67
2018-03-29T23:54:52.078Z,26.92
2018-03-29T23:57:18.840Z,26.17
2018-03-29T23:59:45.625Z,29.65
